sensor_id;sensor_type;location;lat;lon;timestamp;temperature;humidity
57088;DHT22;42965;52.846;6.614;2024-02-28T00:00:22;2.70;99.90
57088;DHT22;42965;52.846;6.614;2024-02-28T00:02:51;2.70;99.90
57088;DHT22;42965;52.846;6.614;2024-02-28T00:05:18;2.80;99.90
57088;DHT22;42965;52.846;6.614;2024-02-28T00:07:45;2.80;99.90
57088;DHT22;42965;52.846;6.614;2024-02-28T00:10:14;2.80;99.90
57088;DHT22;42965;52.846;6.614;2024-02-28T00:12:41;2.80;99.90
57088;DHT22;42965;52.846;6.614;2024-02-28T00:15:08;2.80;99.90
57088;DHT22;42965;52.846;6.614;2024-02-28T00:17:39;2.80;99.90
57088;DHT22;42965;52.846;6.614;2024-02-28T00:20:09;2.80;99.90
57088;DHT22;42965;52.846;6.614;2024-02-28T00:22:36;2.80;99.90
57088;DHT22;42965;52.846;6.614;2024-02-28T00:25:06;2.80;99.90
57088;DHT22;42965;52.846;6.614;2024-02-28T00:27:33;2.80;99.90
57088;DHT22;42965;52.846;6.614;2024-02-28T00:30:00;2.80;99.90
57088;DHT22;42965;52.846;6.614;2024-02-28T00:32:26;2.80;99.90
57088;DHT22;42965;52.846;6.614;2024-02-28T00:34:53;2.80;99.90
57088;DHT22;42965;52.846;6.614;2024-02-28T00:37:22;2.80;99.90
57088;DHT22;42965;52.846;6.614;2024-02-28T00:39:49;2.80;99.90
57088;DHT22;42965;52.846;6.614;2024-02-28T00:42:16;2.90;99.90
57088;DHT22;42965;52.846;6.614;2024-02-28T00:44:46;2.90;99.90
57088;DHT22;42965;52.846;6.614;2024-02-28T00:47:13;2.90;99.90
57088;DHT22;42965;52.846;6.614;2024-02-28T00:49:40;2.80;99.90
57088;DHT22;42965;52.846;6.614;2024-02-28T00:52:06;2.90;99.90
57088;DHT22;42965;52.846;6.614;2024-02-28T00:54:33;2.80;99.90
57088;DHT22;42965;52.846;6.614;2024-02-28T00:57:00;2.80;99.90
57088;DHT22;42965;52.846;6.614;2024-02-28T00:59:27;2.80;99.90
57088;DHT22;42965;52.846;6.614;2024-02-28T01:01:53;2.80;99.90
57088;DHT22;42965;52.846;6.614;2024-02-28T01:04:20;2.80;99.90
57088;DHT22;42965;52.846;6.614;2024-02-28T01:06:47;2.80;99.90
57088;DHT22;42965;52.846;6.614;2024-02-28T01:09:14;2.90;99.90
57088;DHT22;42965;52.846;6.614;2024-02-28T01:11:40;2.80;99.90
57088;DHT22;42965;52.846;6.614;2024-02-28T01:14:07;2.80;99.90
57088;DHT22;42965;52.846;6.614;2024-02-28T01:16:33;2.80;99.90
57088;DHT22;42965;52.846;6.614;2024-02-28T01:19:03;2.70;99.90
57088;DHT22;42965;52.846;6.614;2024-02-28T01:21:33;2.80;99.90
57088;DHT22;42965;52.846;6.614;2024-02-28T01:24:00;2.80;99.90
57088;DHT22;42965;52.846;6.614;2024-02-28T01:26:28;2.70;99.90
57088;DHT22;42965;52.846;6.614;2024-02-28T01:28:55;2.70;99.90
57088;DHT22;42965;52.846;6.614;2024-02-28T01:31:22;2.70;99.90
57088;DHT22;42965;52.846;6.614;2024-02-28T01:33:51;2.70;99.90
57088;DHT22;42965;52.846;6.614;2024-02-28T01:36:17;2.70;99.90
57088;DHT22;42965;52.846;6.614;2024-02-28T01:38:43;2.70;99.90
57088;DHT22;42965;52.846;6.614;2024-02-28T01:41:10;2.70;99.90
57088;DHT22;42965;52.846;6.614;2024-02-28T01:43:36;2.70;99.90
57088;DHT22;42965;52.846;6.614;2024-02-28T01:46:05;2.70;99.90
57088;DHT22;42965;52.846;6.614;2024-02-28T01:48:36;2.80;99.90
57088;DHT22;42965;52.846;6.614;2024-02-28T01:51:03;2.70;99.90
57088;DHT22;42965;52.846;6.614;2024-02-28T01:53:29;2.70;99.90
57088;DHT22;42965;52.846;6.614;2024-02-28T01:55:55;2.70;99.90
57088;DHT22;42965;52.846;6.614;2024-02-28T01:58:25;2.70;99.90
57088;DHT22;42965;52.846;6.614;2024-02-28T02:00:53;2.70;99.90
57088;DHT22;42965;52.846;6.614;2024-02-28T02:03:20;2.70;99.90
57088;DHT22;42965;52.846;6.614;2024-02-28T02:05:47;2.70;99.90
57088;DHT22;42965;52.846;6.614;2024-02-28T02:08:13;2.80;99.90
57088;DHT22;42965;52.846;6.614;2024-02-28T02:10:41;2.80;99.90
57088;DHT22;42965;52.846;6.614;2024-02-28T02:13:08;2.80;99.90
57088;DHT22;42965;52.846;6.614;2024-02-28T02:15:36;2.80;99.90
57088;DHT22;42965;52.846;6.614;2024-02-28T02:18:03;2.80;99.90
57088;DHT22;42965;52.846;6.614;2024-02-28T02:20:32;2.80;99.90
57088;DHT22;42965;52.846;6.614;2024-02-28T02:23:02;2.80;99.90
57088;DHT22;42965;52.846;6.614;2024-02-28T02:25:28;2.80;99.90
57088;DHT22;42965;52.846;6.614;2024-02-28T02:27:55;2.80;99.90
57088;DHT22;42965;52.846;6.614;2024-02-28T02:30:22;2.80;99.90
57088;DHT22;42965;52.846;6.614;2024-02-28T02:32:49;2.80;99.90
57088;DHT22;42965;52.846;6.614;2024-02-28T02:35:16;2.70;99.90
57088;DHT22;42965;52.846;6.614;2024-02-28T02:37:44;2.80;99.90
57088;DHT22;42965;52.846;6.614;2024-02-28T02:40:13;2.80;99.90
57088;DHT22;42965;52.846;6.614;2024-02-28T02:42:42;2.80;99.90
57088;DHT22;42965;52.846;6.614;2024-02-28T02:45:10;2.80;99.90
57088;DHT22;42965;52.846;6.614;2024-02-28T02:47:37;2.80;99.90
57088;DHT22;42965;52.846;6.614;2024-02-28T02:50:05;2.70;99.90
57088;DHT22;42965;52.846;6.614;2024-02-28T02:52:52;2.80;99.90
57088;DHT22;42965;52.846;6.614;2024-02-28T02:55:21;2.80;99.90
57088;DHT22;42965;52.846;6.614;2024-02-28T02:57:52;2.80;99.90
57088;DHT22;42965;52.846;6.614;2024-02-28T03:00:22;2.70;99.90
57088;DHT22;42965;52.846;6.614;2024-02-28T03:02:51;2.70;99.90
57088;DHT22;42965;52.846;6.614;2024-02-28T03:05:19;2.80;99.90
57088;DHT22;42965;52.846;6.614;2024-02-28T03:07:46;2.70;99.90
57088;DHT22;42965;52.846;6.614;2024-02-28T03:10:15;2.70;99.90
57088;DHT22;42965;52.846;6.614;2024-02-28T03:12:42;2.60;99.90
57088;DHT22;42965;52.846;6.614;2024-02-28T03:15:09;2.60;99.90
57088;DHT22;42965;52.846;6.614;2024-02-28T03:17:37;2.60;99.90
57088;DHT22;42965;52.846;6.614;2024-02-28T03:20:04;2.60;99.90
57088;DHT22;42965;52.846;6.614;2024-02-28T03:22:34;2.70;99.90
57088;DHT22;42965;52.846;6.614;2024-02-28T03:25:05;2.70;99.90
57088;DHT22;42965;52.846;6.614;2024-02-28T03:27:32;2.70;99.90
57088;DHT22;42965;52.846;6.614;2024-02-28T03:29:59;2.70;99.90
57088;DHT22;42965;52.846;6.614;2024-02-28T03:32:26;2.80;99.90
57088;DHT22;42965;52.846;6.614;2024-02-28T03:34:54;2.80;99.90
57088;DHT22;42965;52.846;6.614;2024-02-28T03:37:22;2.80;99.90
57088;DHT22;42965;52.846;6.614;2024-02-28T03:39:51;2.80;99.90
57088;DHT22;42965;52.846;6.614;2024-02-28T03:42:20;2.80;99.90
57088;DHT22;42965;52.846;6.614;2024-02-28T03:44:48;2.70;99.90
57088;DHT22;42965;52.846;6.614;2024-02-28T03:47:15;2.70;99.90
57088;DHT22;42965;52.846;6.614;2024-02-28T03:49:43;2.70;99.90
57088;DHT22;42965;52.846;6.614;2024-02-28T03:52:12;2.70;99.90
57088;DHT22;42965;52.846;6.614;2024-02-28T03:54:43;2.80;99.90
57088;DHT22;42965;52.846;6.614;2024-02-28T03:57:11;2.70;99.90
57088;DHT22;42965;52.846;6.614;2024-02-28T03:59:37;2.70;99.90
57088;DHT22;42965;52.846;6.614;2024-02-28T04:02:03;2.70;99.90
57088;DHT22;42965;52.846;6.614;2024-02-28T04:04:32;2.70;99.90
57088;DHT22;42965;52.846;6.614;2024-02-28T04:06:58;2.70;99.90
57088;DHT22;42965;52.846;6.614;2024-02-28T04:09:25;2.70;99.90
57088;DHT22;42965;52.846;6.614;2024-02-28T04:11:52;2.70;99.90
57088;DHT22;42965;52.846;6.614;2024-02-28T04:14:21;2.70;99.90
57088;DHT22;42965;52.846;6.614;2024-02-28T04:16:48;2.70;99.90
57088;DHT22;42965;52.846;6.614;2024-02-28T04:19:16;2.70;99.90
57088;DHT22;42965;52.846;6.614;2024-02-28T04:21:43;2.70;99.90
57088;DHT22;42965;52.846;6.614;2024-02-28T04:24:13;2.70;99.90
57088;DHT22;42965;52.846;6.614;2024-02-28T04:26:39;2.70;99.90
57088;DHT22;42965;52.846;6.614;2024-02-28T04:29:06;2.70;99.90
57088;DHT22;42965;52.846;6.614;2024-02-28T04:31:42;2.70;99.90
57088;DHT22;42965;52.846;6.614;2024-02-28T04:34:14;2.70;99.90
57088;DHT22;42965;52.846;6.614;2024-02-28T04:36:41;2.70;99.90
57088;DHT22;42965;52.846;6.614;2024-02-28T04:39:10;2.70;99.90
57088;DHT22;42965;52.846;6.614;2024-02-28T04:41:37;2.70;99.90
57088;DHT22;42965;52.846;6.614;2024-02-28T04:44:03;2.80;99.90
57088;DHT22;42965;52.846;6.614;2024-02-28T04:46:34;2.80;99.90
57088;DHT22;42965;52.846;6.614;2024-02-28T04:49:01;2.80;99.90
57088;DHT22;42965;52.846;6.614;2024-02-28T04:51:28;2.80;99.90
57088;DHT22;42965;52.846;6.614;2024-02-28T04:53:54;2.80;99.90
57088;DHT22;42965;52.846;6.614;2024-02-28T04:56:21;2.90;99.90
57088;DHT22;42965;52.846;6.614;2024-02-28T04:58:49;2.90;99.90
57088;DHT22;42965;52.846;6.614;2024-02-28T05:01:16;2.90;99.90
57088;DHT22;42965;52.846;6.614;2024-02-28T05:03:44;2.90;99.90
57088;DHT22;42965;52.846;6.614;2024-02-28T05:06:11;2.90;99.90
57088;DHT22;42965;52.846;6.614;2024-02-28T05:08:38;2.90;99.90
57088;DHT22;42965;52.846;6.614;2024-02-28T05:11:06;3.00;99.90
57088;DHT22;42965;52.846;6.614;2024-02-28T05:13:35;3.00;99.90
57088;DHT22;42965;52.846;6.614;2024-02-28T05:16:02;3.00;99.90
57088;DHT22;42965;52.846;6.614;2024-02-28T05:18:30;3.00;99.90
57088;DHT22;42965;52.846;6.614;2024-02-28T05:21:00;3.00;99.90
57088;DHT22;42965;52.846;6.614;2024-02-28T05:23:30;3.00;99.90
57088;DHT22;42965;52.846;6.614;2024-02-28T05:29:08;3.10;99.90
57088;DHT22;42965;52.846;6.614;2024-02-28T05:31:35;3.10;99.90
57088;DHT22;42965;52.846;6.614;2024-02-28T05:34:05;3.10;99.90
57088;DHT22;42965;52.846;6.614;2024-02-28T05:36:32;3.10;99.90
57088;DHT22;42965;52.846;6.614;2024-02-28T05:39:01;3.10;99.90
57088;DHT22;42965;52.846;6.614;2024-02-28T05:41:36;3.10;99.90
57088;DHT22;42965;52.846;6.614;2024-02-28T05:44:03;3.10;99.90
57088;DHT22;42965;52.846;6.614;2024-02-28T05:46:31;3.20;99.90
57088;DHT22;42965;52.846;6.614;2024-02-28T05:49:00;3.20;99.90
57088;DHT22;42965;52.846;6.614;2024-02-28T05:51:26;3.20;99.90
57088;DHT22;42965;52.846;6.614;2024-02-28T05:53:54;3.20;99.90
57088;DHT22;42965;52.846;6.614;2024-02-28T05:56:22;3.20;99.90
57088;DHT22;42965;52.846;6.614;2024-02-28T05:58:50;3.20;99.90
57088;DHT22;42965;52.846;6.614;2024-02-28T06:01:16;3.20;99.90
57088;DHT22;42965;52.846;6.614;2024-02-28T06:03:50;3.30;99.90
57088;DHT22;42965;52.846;6.614;2024-02-28T06:06:18;3.30;99.90
57088;DHT22;42965;52.846;6.614;2024-02-28T06:08:44;3.30;99.90
57088;DHT22;42965;52.846;6.614;2024-02-28T06:11:11;3.40;99.90
57088;DHT22;42965;52.846;6.614;2024-02-28T06:13:37;3.40;99.90
57088;DHT22;42965;52.846;6.614;2024-02-28T06:16:06;3.40;99.90
57088;DHT22;42965;52.846;6.614;2024-02-28T06:18:33;3.40;99.90
57088;DHT22;42965;52.846;6.614;2024-02-28T06:20:59;3.40;99.90
57088;DHT22;42965;52.846;6.614;2024-02-28T06:23:26;3.40;99.90
57088;DHT22;42965;52.846;6.614;2024-02-28T06:25:53;3.40;99.90
57088;DHT22;42965;52.846;6.614;2024-02-28T06:28:22;3.40;99.90
57088;DHT22;42965;52.846;6.614;2024-02-28T06:30:49;3.50;99.90
57088;DHT22;42965;52.846;6.614;2024-02-28T06:33:16;3.50;99.90
57088;DHT22;42965;52.846;6.614;2024-02-28T06:35:42;3.40;99.90
57088;DHT22;42965;52.846;6.614;2024-02-28T06:38:09;3.50;99.90
57088;DHT22;42965;52.846;6.614;2024-02-28T06:40:35;3.50;99.90
57088;DHT22;42965;52.846;6.614;2024-02-28T06:43:02;3.50;99.90
57088;DHT22;42965;52.846;6.614;2024-02-28T06:45:30;3.60;99.90
57088;DHT22;42965;52.846;6.614;2024-02-28T06:47:58;3.60;99.90
57088;DHT22;42965;52.846;6.614;2024-02-28T06:50:26;3.60;99.90
57088;DHT22;42965;52.846;6.614;2024-02-28T06:52:53;3.60;99.90
57088;DHT22;42965;52.846;6.614;2024-02-28T06:55:22;3.60;99.90
57088;DHT22;42965;52.846;6.614;2024-02-28T06:57:50;3.60;99.90
57088;DHT22;42965;52.846;6.614;2024-02-28T07:00:20;3.60;99.90
57088;DHT22;42965;52.846;6.614;2024-02-28T07:02:48;3.60;99.90
57088;DHT22;42965;52.846;6.614;2024-02-28T07:05:15;3.60;99.90
57088;DHT22;42965;52.846;6.614;2024-02-28T07:07:42;3.60;99.90
57088;DHT22;42965;52.846;6.614;2024-02-28T07:10:11;3.60;99.90
57088;DHT22;42965;52.846;6.614;2024-02-28T07:12:37;3.70;99.90
57088;DHT22;42965;52.846;6.614;2024-02-28T07:15:04;3.70;99.90
57088;DHT22;42965;52.846;6.614;2024-02-28T07:17:31;3.70;99.90
57088;DHT22;42965;52.846;6.614;2024-02-28T07:19:58;3.70;99.90
57088;DHT22;42965;52.846;6.614;2024-02-28T07:22:24;3.70;99.90
57088;DHT22;42965;52.846;6.614;2024-02-28T07:24:52;3.80;99.90
57088;DHT22;42965;52.846;6.614;2024-02-28T07:27:18;3.80;99.90
57088;DHT22;42965;52.846;6.614;2024-02-28T07:29:53;3.80;99.90
57088;DHT22;42965;52.846;6.614;2024-02-28T07:32:25;3.80;99.90
57088;DHT22;42965;52.846;6.614;2024-02-28T07:34:53;3.90;99.90
57088;DHT22;42965;52.846;6.614;2024-02-28T07:37:21;3.90;99.90
57088;DHT22;42965;52.846;6.614;2024-02-28T07:39:48;3.90;99.90
57088;DHT22;42965;52.846;6.614;2024-02-28T07:42:18;4.00;99.90
57088;DHT22;42965;52.846;6.614;2024-02-28T07:44:45;4.00;99.90
57088;DHT22;42965;52.846;6.614;2024-02-28T07:47:12;4.00;99.90
57088;DHT22;42965;52.846;6.614;2024-02-28T07:49:43;4.10;99.90
57088;DHT22;42965;52.846;6.614;2024-02-28T07:52:09;4.10;99.90
57088;DHT22;42965;52.846;6.614;2024-02-28T07:54:36;4.10;99.90
57088;DHT22;42965;52.846;6.614;2024-02-28T07:57:06;4.20;99.90
57088;DHT22;42965;52.846;6.614;2024-02-28T07:59:44;4.20;99.90
57088;DHT22;42965;52.846;6.614;2024-02-28T08:02:10;4.20;99.90
57088;DHT22;42965;52.846;6.614;2024-02-28T08:04:40;4.30;99.90
57088;DHT22;42965;52.846;6.614;2024-02-28T08:07:07;4.30;99.90
57088;DHT22;42965;52.846;6.614;2024-02-28T08:09:34;4.30;99.90
57088;DHT22;42965;52.846;6.614;2024-02-28T08:12:02;4.30;99.90
57088;DHT22;42965;52.846;6.614;2024-02-28T08:14:31;4.30;99.90
57088;DHT22;42965;52.846;6.614;2024-02-28T08:16:59;4.30;99.90
57088;DHT22;42965;52.846;6.614;2024-02-28T08:19:26;4.30;99.90
57088;DHT22;42965;52.846;6.614;2024-02-28T08:21:54;4.30;99.90
57088;DHT22;42965;52.846;6.614;2024-02-28T08:24:22;4.20;99.90
57088;DHT22;42965;52.846;6.614;2024-02-28T08:26:51;4.20;99.90
57088;DHT22;42965;52.846;6.614;2024-02-28T08:29:19;4.20;99.90
57088;DHT22;42965;52.846;6.614;2024-02-28T08:31:46;4.20;99.90
57088;DHT22;42965;52.846;6.614;2024-02-28T08:34:14;4.20;99.90
57088;DHT22;42965;52.846;6.614;2024-02-28T08:36:41;4.30;99.90
57088;DHT22;42965;52.846;6.614;2024-02-28T08:39:08;4.30;99.90
57088;DHT22;42965;52.846;6.614;2024-02-28T08:41:37;4.30;99.90
57088;DHT22;42965;52.846;6.614;2024-02-28T08:44:05;4.20;99.90
57088;DHT22;42965;52.846;6.614;2024-02-28T08:46:32;4.40;99.90
57088;DHT22;42965;52.846;6.614;2024-02-28T08:49:00;4.40;99.90
57088;DHT22;42965;52.846;6.614;2024-02-28T08:51:27;4.50;99.90
57088;DHT22;42965;52.846;6.614;2024-02-28T08:53:54;4.50;99.90
57088;DHT22;42965;52.846;6.614;2024-02-28T08:56:24;4.50;99.90
57088;DHT22;42965;52.846;6.614;2024-02-28T08:58:52;4.60;99.90
57088;DHT22;42965;52.846;6.614;2024-02-28T09:01:21;4.60;99.90
57088;DHT22;42965;52.846;6.614;2024-02-28T09:03:49;4.70;99.90
57088;DHT22;42965;52.846;6.614;2024-02-28T09:06:16;4.60;99.90
57088;DHT22;42965;52.846;6.614;2024-02-28T09:08:43;4.60;99.90
57088;DHT22;42965;52.846;6.614;2024-02-28T09:11:11;4.60;99.90
57088;DHT22;42965;52.846;6.614;2024-02-28T09:13:39;4.60;99.90
57088;DHT22;42965;52.846;6.614;2024-02-28T09:16:09;4.70;99.90
57088;DHT22;42965;52.846;6.614;2024-02-28T09:18:37;4.80;99.90
57088;DHT22;42965;52.846;6.614;2024-02-28T09:21:05;4.80;99.90
57088;DHT22;42965;52.846;6.614;2024-02-28T09:23:32;4.80;99.90
57088;DHT22;42965;52.846;6.614;2024-02-28T09:26:03;5.00;99.90
57088;DHT22;42965;52.846;6.614;2024-02-28T09:28:33;5.10;99.90
57088;DHT22;42965;52.846;6.614;2024-02-28T09:31:03;5.30;99.90
57088;DHT22;42965;52.846;6.614;2024-02-28T09:33:31;5.60;99.90
57088;DHT22;42965;52.846;6.614;2024-02-28T09:36:02;5.70;99.90
57088;DHT22;42965;52.846;6.614;2024-02-28T09:38:30;5.80;99.90
57088;DHT22;42965;52.846;6.614;2024-02-28T09:41:02;5.80;99.90
57088;DHT22;42965;52.846;6.614;2024-02-28T09:43:40;5.80;99.90
57088;DHT22;42965;52.846;6.614;2024-02-28T09:46:08;5.90;99.90
57088;DHT22;42965;52.846;6.614;2024-02-28T09:48:40;6.00;99.90
57088;DHT22;42965;52.846;6.614;2024-02-28T09:51:13;6.00;99.90
57088;DHT22;42965;52.846;6.614;2024-02-28T09:53:42;5.90;99.90
57088;DHT22;42965;52.846;6.614;2024-02-28T09:56:09;6.00;99.90
57088;DHT22;42965;52.846;6.614;2024-02-28T09:58:39;6.00;99.90
57088;DHT22;42965;52.846;6.614;2024-02-28T10:01:08;6.00;99.90
57088;DHT22;42965;52.846;6.614;2024-02-28T10:03:36;6.10;99.90
57088;DHT22;42965;52.846;6.614;2024-02-28T10:06:13;6.20;99.90
57088;DHT22;42965;52.846;6.614;2024-02-28T10:08:41;6.50;99.90
57088;DHT22;42965;52.846;6.614;2024-02-28T10:11:08;6.70;99.90
57088;DHT22;42965;52.846;6.614;2024-02-28T10:13:36;6.80;99.90
57088;DHT22;42965;52.846;6.614;2024-02-28T10:16:06;6.90;99.90
57088;DHT22;42965;52.846;6.614;2024-02-28T10:18:32;6.80;99.90
57088;DHT22;42965;52.846;6.614;2024-02-28T10:21:00;6.60;99.90
57088;DHT22;42965;52.846;6.614;2024-02-28T10:23:27;6.40;99.90
57088;DHT22;42965;52.846;6.614;2024-02-28T10:25:54;6.40;99.90
57088;DHT22;42965;52.846;6.614;2024-02-28T10:28:22;6.40;99.90
57088;DHT22;42965;52.846;6.614;2024-02-28T10:30:48;6.40;99.90
57088;DHT22;42965;52.846;6.614;2024-02-28T10:33:15;6.40;99.90
57088;DHT22;42965;52.846;6.614;2024-02-28T10:35:42;6.50;99.90
57088;DHT22;42965;52.846;6.614;2024-02-28T10:38:12;6.40;99.90
57088;DHT22;42965;52.846;6.614;2024-02-28T10:40:40;6.30;99.90
57088;DHT22;42965;52.846;6.614;2024-02-28T10:43:10;6.40;99.90
57088;DHT22;42965;52.846;6.614;2024-02-28T10:45:38;6.40;99.90
57088;DHT22;42965;52.846;6.614;2024-02-28T10:48:06;6.40;99.90
57088;DHT22;42965;52.846;6.614;2024-02-28T10:50:35;6.40;99.90
57088;DHT22;42965;52.846;6.614;2024-02-28T10:53:03;6.50;99.90
57088;DHT22;42965;52.846;6.614;2024-02-28T10:55:40;6.50;99.90
57088;DHT22;42965;52.846;6.614;2024-02-28T10:58:08;6.50;99.90
57088;DHT22;42965;52.846;6.614;2024-02-28T11:00:41;6.60;99.90
57088;DHT22;42965;52.846;6.614;2024-02-28T11:03:21;6.70;99.90
57088;DHT22;42965;52.846;6.614;2024-02-28T11:05:49;6.70;99.90
57088;DHT22;42965;52.846;6.614;2024-02-28T11:08:23;6.70;99.90
57088;DHT22;42965;52.846;6.614;2024-02-28T11:11:03;6.70;99.90
57088;DHT22;42965;52.846;6.614;2024-02-28T11:13:38;6.70;99.90
57088;DHT22;42965;52.846;6.614;2024-02-28T11:16:09;6.70;99.90
57088;DHT22;42965;52.846;6.614;2024-02-28T11:18:49;6.80;99.90
57088;DHT22;42965;52.846;6.614;2024-02-28T11:21:28;6.80;99.90
57088;DHT22;42965;52.846;6.614;2024-02-28T11:24:01;7.00;99.90
57088;DHT22;42965;52.846;6.614;2024-02-28T11:26:29;7.10;99.90
57088;DHT22;42965;52.846;6.614;2024-02-28T11:28:56;7.10;99.90
57088;DHT22;42965;52.846;6.614;2024-02-28T11:31:26;7.20;99.90
57088;DHT22;42965;52.846;6.614;2024-02-28T11:33:54;7.30;99.90
57088;DHT22;42965;52.846;6.614;2024-02-28T11:36:23;7.40;99.90
57088;DHT22;42965;52.846;6.614;2024-02-28T11:38:52;7.50;99.90
57088;DHT22;42965;52.846;6.614;2024-02-28T11:41:28;7.60;99.90
57088;DHT22;42965;52.846;6.614;2024-02-28T11:43:56;7.80;99.90
57088;DHT22;42965;52.846;6.614;2024-02-28T11:46:24;7.80;99.90
57088;DHT22;42965;52.846;6.614;2024-02-28T11:49:01;7.80;99.90
57088;DHT22;42965;52.846;6.614;2024-02-28T11:51:31;7.90;99.90
57088;DHT22;42965;52.846;6.614;2024-02-28T11:54:01;7.80;99.90
57088;DHT22;42965;52.846;6.614;2024-02-28T11:56:29;7.80;99.90
57088;DHT22;42965;52.846;6.614;2024-02-28T11:58:59;7.90;99.90
57088;DHT22;42965;52.846;6.614;2024-02-28T12:01:37;7.90;99.90
57088;DHT22;42965;52.846;6.614;2024-02-28T12:04:04;7.90;99.90
57088;DHT22;42965;52.846;6.614;2024-02-28T12:06:37;7.90;99.90
57088;DHT22;42965;52.846;6.614;2024-02-28T12:09:05;7.90;99.90
57088;DHT22;42965;52.846;6.614;2024-02-28T12:11:36;8.00;99.90
57088;DHT22;42965;52.846;6.614;2024-02-28T12:14:12;8.00;99.90
57088;DHT22;42965;52.846;6.614;2024-02-28T12:16:39;8.00;99.90
57088;DHT22;42965;52.846;6.614;2024-02-28T12:19:12;8.00;99.90
57088;DHT22;42965;52.846;6.614;2024-02-28T12:21:40;8.00;99.90
57088;DHT22;42965;52.846;6.614;2024-02-28T12:24:10;8.10;99.90
57088;DHT22;42965;52.846;6.614;2024-02-28T12:26:38;8.00;99.90
57088;DHT22;42965;52.846;6.614;2024-02-28T12:29:05;8.10;99.90
57088;DHT22;42965;52.846;6.614;2024-02-28T12:31:33;8.10;99.90
57088;DHT22;42965;52.846;6.614;2024-02-28T12:34:02;8.00;99.90
57088;DHT22;42965;52.846;6.614;2024-02-28T12:36:31;8.00;99.90
57088;DHT22;42965;52.846;6.614;2024-02-28T12:38:59;8.00;99.90
57088;DHT22;42965;52.846;6.614;2024-02-28T12:41:26;8.00;99.90
57088;DHT22;42965;52.846;6.614;2024-02-28T12:43:55;8.00;99.90
57088;DHT22;42965;52.846;6.614;2024-02-28T12:46:22;8.00;99.90
57088;DHT22;42965;52.846;6.614;2024-02-28T12:48:49;8.00;99.90
57088;DHT22;42965;52.846;6.614;2024-02-28T12:51:41;8.00;99.90
57088;DHT22;42965;52.846;6.614;2024-02-28T12:54:10;8.00;99.90
57088;DHT22;42965;52.846;6.614;2024-02-28T12:56:38;8.00;99.90
57088;DHT22;42965;52.846;6.614;2024-02-28T12:59:06;8.00;99.90
57088;DHT22;42965;52.846;6.614;2024-02-28T13:01:36;7.90;99.90
57088;DHT22;42965;52.846;6.614;2024-02-28T13:04:07;7.90;99.90
57088;DHT22;42965;52.846;6.614;2024-02-28T13:06:38;7.90;99.90
57088;DHT22;42965;52.846;6.614;2024-02-28T13:09:07;7.90;99.90
57088;DHT22;42965;52.846;6.614;2024-02-28T13:11:41;7.90;99.90
57088;DHT22;42965;52.846;6.614;2024-02-28T13:14:09;7.90;99.90
57088;DHT22;42965;52.846;6.614;2024-02-28T13:16:38;7.90;99.90
57088;DHT22;42965;52.846;6.614;2024-02-28T13:19:05;7.90;99.90
57088;DHT22;42965;52.846;6.614;2024-02-28T13:21:33;7.90;99.90
57088;DHT22;42965;52.846;6.614;2024-02-28T13:24:06;7.90;99.90
57088;DHT22;42965;52.846;6.614;2024-02-28T13:26:33;7.90;99.90
57088;DHT22;42965;52.846;6.614;2024-02-28T13:29:01;7.90;99.90
57088;DHT22;42965;52.846;6.614;2024-02-28T13:31:29;7.90;99.90
57088;DHT22;42965;52.846;6.614;2024-02-28T13:33:57;8.00;99.90
57088;DHT22;42965;52.846;6.614;2024-02-28T13:36:24;8.00;99.90
57088;DHT22;42965;52.846;6.614;2024-02-28T13:38:54;8.00;99.90
57088;DHT22;42965;52.846;6.614;2024-02-28T13:41:23;8.00;99.90
57088;DHT22;42965;52.846;6.614;2024-02-28T13:43:52;7.90;99.90
57088;DHT22;42965;52.846;6.614;2024-02-28T13:46:19;7.90;99.90
57088;DHT22;42965;52.846;6.614;2024-02-28T13:48:47;7.90;99.90
57088;DHT22;42965;52.846;6.614;2024-02-28T13:51:14;8.00;99.90
57088;DHT22;42965;52.846;6.614;2024-02-28T13:53:42;8.00;99.90
57088;DHT22;42965;52.846;6.614;2024-02-28T13:56:10;8.00;99.90
57088;DHT22;42965;52.846;6.614;2024-02-28T13:58:37;8.10;99.90
57088;DHT22;42965;52.846;6.614;2024-02-28T14:01:04;8.10;99.90
57088;DHT22;42965;52.846;6.614;2024-02-28T14:03:37;8.20;99.90
57088;DHT22;42965;52.846;6.614;2024-02-28T14:06:05;8.10;99.90
57088;DHT22;42965;52.846;6.614;2024-02-28T14:08:31;8.20;99.90
57088;DHT22;42965;52.846;6.614;2024-02-28T14:10:58;8.20;99.90
57088;DHT22;42965;52.846;6.614;2024-02-28T14:13:27;8.30;99.90
57088;DHT22;42965;52.846;6.614;2024-02-28T14:15:55;8.40;99.90
57088;DHT22;42965;52.846;6.614;2024-02-28T14:18:24;8.50;99.90
57088;DHT22;42965;52.846;6.614;2024-02-28T14:20:52;8.50;99.90
57088;DHT22;42965;52.846;6.614;2024-02-28T14:23:18;8.50;99.90
57088;DHT22;42965;52.846;6.614;2024-02-28T14:25:44;8.50;99.90
57088;DHT22;42965;52.846;6.614;2024-02-28T14:28:11;8.50;99.90
57088;DHT22;42965;52.846;6.614;2024-02-28T14:30:39;8.50;99.90
57088;DHT22;42965;52.846;6.614;2024-02-28T14:33:06;8.40;99.90
57088;DHT22;42965;52.846;6.614;2024-02-28T14:35:33;8.40;99.90
57088;DHT22;42965;52.846;6.614;2024-02-28T14:38:01;8.30;99.90
57088;DHT22;42965;52.846;6.614;2024-02-28T14:40:28;8.20;99.90
57088;DHT22;42965;52.846;6.614;2024-02-28T14:42:54;8.20;99.90
57088;DHT22;42965;52.846;6.614;2024-02-28T14:45:21;8.00;99.90
57088;DHT22;42965;52.846;6.614;2024-02-28T14:47:48;8.00;99.90
57088;DHT22;42965;52.846;6.614;2024-02-28T14:50:14;8.00;99.90
57088;DHT22;42965;52.846;6.614;2024-02-28T14:52:41;8.00;99.90
57088;DHT22;42965;52.846;6.614;2024-02-28T14:55:08;8.00;99.90
57088;DHT22;42965;52.846;6.614;2024-02-28T14:57:36;8.00;99.90
57088;DHT22;42965;52.846;6.614;2024-02-28T15:00:03;7.90;99.90
57088;DHT22;42965;52.846;6.614;2024-02-28T15:02:40;7.90;99.90
57088;DHT22;42965;52.846;6.614;2024-02-28T15:05:08;7.90;99.90
57088;DHT22;42965;52.846;6.614;2024-02-28T15:07:36;7.90;99.90
57088;DHT22;42965;52.846;6.614;2024-02-28T15:10:03;7.90;99.90
57088;DHT22;42965;52.846;6.614;2024-02-28T15:12:32;7.90;99.90
57088;DHT22;42965;52.846;6.614;2024-02-28T15:15:03;7.90;99.90
57088;DHT22;42965;52.846;6.614;2024-02-28T15:17:31;7.80;99.90
57088;DHT22;42965;52.846;6.614;2024-02-28T15:19:58;7.90;99.90
57088;DHT22;42965;52.846;6.614;2024-02-28T15:22:25;7.90;99.90
57088;DHT22;42965;52.846;6.614;2024-02-28T15:24:52;7.90;99.90
57088;DHT22;42965;52.846;6.614;2024-02-28T15:27:19;8.00;99.90
57088;DHT22;42965;52.846;6.614;2024-02-28T15:29:45;8.00;99.90
57088;DHT22;42965;52.846;6.614;2024-02-28T15:32:12;8.10;99.90
57088;DHT22;42965;52.846;6.614;2024-02-28T15:34:39;8.10;99.90
57088;DHT22;42965;52.846;6.614;2024-02-28T15:37:06;8.10;99.90
57088;DHT22;42965;52.846;6.614;2024-02-28T15:39:32;8.20;99.90
57088;DHT22;42965;52.846;6.614;2024-02-28T15:41:58;8.30;99.90
57088;DHT22;42965;52.846;6.614;2024-02-28T15:44:26;8.30;99.90
57088;DHT22;42965;52.846;6.614;2024-02-28T15:46:53;8.40;99.90
57088;DHT22;42965;52.846;6.614;2024-02-28T15:49:19;8.30;99.90
57088;DHT22;42965;52.846;6.614;2024-02-28T15:51:46;8.20;99.90
57088;DHT22;42965;52.846;6.614;2024-02-28T15:54:12;8.20;99.90